Time;durP1;ratioP1;P1;durP2;ratioP2;P2;SDS_P1;SDS_P2;PMS_P1;PMS_P2;Temp;Humidity;BMP_temperature;BMP_pressure;BME280_temperature;BME280_humidity;BME280_pressure;Samples;Min_cycle;Max_cycle;Signal;HPM_P1;HPM_P2
2023/11/24 00:00:52;;;;;;;18.65;2.58;;;;;;;11.23;66.90;99762.66;5084843;27;98811;-71
2023/11/24 00:03:19;;;;;;;19.00;2.47;;;;;;;10.96;68.29;99752.63;5086308;27;96701;-72
2023/11/24 00:05:46;;;;;;;16.95;2.15;;;;;;;11.11;66.75;99751.81;5087302;27;98506;-72
2023/11/24 00:08:13;;;;;;;20.35;2.75;;;;;;;11.22;65.27;99738.03;5083653;27;102874;-72
2023/11/24 00:10:40;;;;;;;15.13;2.13;;;;;;;11.21;65.70;99740.75;5085309;27;97975;-72
2023/11/24 00:13:06;;;;;;;18.45;3.08;;;;;;;11.30;65.01;99748.19;5091742;27;96730;-73
2023/11/24 00:15:32;;;;;;;20.58;4.20;;;;;;;11.49;64.81;99747.09;5089653;27;98389;-73
2023/11/24 00:18:01;;;;;;;17.10;2.60;;;;;;;11.69;63.25;99756.59;5090485;27;99204;-73
2023/11/24 00:20:27;;;;;;;13.98;2.65;;;;;;;11.56;64.10;99758.19;5092976;27;98339;-74
2023/11/24 00:22:55;;;;;;;25.15;3.22;;;;;;;11.67;63.79;99761.13;5091645;27;96822;-72
2023/11/24 00:25:22;;;;;;;13.65;2.00;;;;;;;11.71;63.08;99756.50;5090688;27;97239;-74
2023/11/24 00:27:51;;;;;;;15.68;2.63;;;;;;;11.45;64.54;99774.66;5082553;27;98951;-71
2023/11/24 00:30:17;;;;;;;19.98;3.25;;;;;;;11.53;64.13;99766.31;5087108;27;99040;-75
2023/11/24 00:32:45;;;;;;;15.55;2.15;;;;;;;11.90;63.17;99773.09;5086433;27;97743;-73
2023/11/24 00:35:12;;;;;;;17.00;2.17;;;;;;;11.87;62.83;99779.44;5086707;27;96803;-72
2023/11/24 00:37:39;;;;;;;17.83;1.90;;;;;;;11.46;63.34;99775.53;5082375;27;100477;-72
2023/11/24 00:40:13;;;;;;;19.98;2.40;;;;;;;11.34;64.55;99784.97;5086667;27;98842;-73
2023/11/24 00:42:40;;;;;;;17.55;2.10;;;;;;;11.30;64.38;99772.84;5087273;27;98049;-72
2023/11/24 00:45:07;;;;;;;16.85;2.55;;;;;;;11.38;63.79;99760.06;5086813;27;98664;-71
2023/11/24 00:47:34;;;;;;;15.88;1.88;;;;;;;11.20;64.15;99761.06;5078628;27;99522;-71
2023/11/24 00:50:00;;;;;;;22.92;2.38;;;;;;;11.39;63.66;99758.28;5083372;27;99212;-72
2023/11/24 00:52:28;;;;;;;13.00;2.30;;;;;;;11.30;63.44;99767.56;5086688;27;98077;-71
2023/11/24 00:54:56;;;;;;;15.95;2.28;;;;;;;11.33;63.25;99755.97;5089591;27;96736;-71
2023/11/24 00:57:22;;;;;;;19.42;2.42;;;;;;;11.32;62.85;99768.34;5083293;27;99061;-71
2023/11/24 00:59:49;;;;;;;15.52;2.58;;;;;;;11.26;62.87;99763.38;5079058;27;98762;-71
2023/11/24 01:02:15;;;;;;;14.25;2.28;;;;;;;11.30;62.39;99772.00;5082373;27;97020;-71
2023/11/24 01:04:41;;;;;;;22.27;3.13;;;;;;;11.07;62.36;99768.78;5088691;27;98663;-71
2023/11/24 01:07:08;;;;;;;14.50;2.13;;;;;;;11.12;62.26;99764.13;5084268;27;98853;-69
2023/11/24 01:09:35;;;;;;;16.13;3.00;;;;;;;10.92;62.74;99764.31;5081622;27;101546;-70
2023/11/24 01:12:02;;;;;;;16.58;2.30;;;;;;;11.30;62.14;99772.00;5073241;27;96882;-71
2023/11/24 01:14:28;;;;;;;10.45;2.25;;;;;;;11.34;61.40;99753.25;5084948;27;98507;-71
2023/11/24 01:16:55;;;;;;;14.45;2.75;;;;;;;11.37;61.56;99770.72;5079925;27;99000;-71
2023/11/24 01:19:21;;;;;;;18.20;3.13;;;;;;;11.50;61.03;99767.31;5086727;27;102255;-71
2023/11/24 01:21:48;;;;;;;18.95;3.08;;;;;;;10.94;62.92;99761.59;5084158;27;96800;-71
2023/11/24 01:24:15;;;;;;;24.52;3.05;;;;;;;11.06;62.97;99768.88;5086387;27;97478;-71
2023/11/24 01:26:42;;;;;;;16.80;2.60;;;;;;;11.10;62.64;99765.13;5086373;27;98944;-72
2023/11/24 01:29:11;;;;;;;18.02;1.95;;;;;;;11.37;61.32;99760.13;5083495;27;98861;-73
2023/11/24 01:31:39;;;;;;;19.63;6.20;;;;;;;10.71;63.55;99765.41;5090331;27;96763;-73
2023/11/24 01:34:06;;;;;;;16.70;3.50;;;;;;;11.01;63.42;99786.78;5083012;27;97216;-74
2023/11/24 01:36:32;;;;;;;17.60;2.40;;;;;;;10.90;63.07;99773.25;5091255;27;99216;-73
2023/11/24 01:39:01;;;;;;;17.92;2.70;;;;;;;11.12;63.13;99765.91;5088924;27;98868;-74
2023/11/24 01:41:27;;;;;;;15.13;2.95;;;;;;;11.26;62.72;99775.75;5091164;27;96810;-74
2023/11/24 01:43:59;;;;;;;24.80;2.88;;;;;;;11.43;62.01;99781.81;5088589;27;99175;-73
2023/11/24 01:46:26;;;;;;;22.20;2.65;;;;;;;11.25;63.40;99805.75;5081309;27;99009;-72
2023/11/24 01:48:53;;;;;;;16.05;2.63;;;;;;;10.89;66.90;99835.84;5090514;27;99019;-72
2023/11/24 01:51:19;;;;;;;23.67;2.55;;;;;;;10.62;69.68;99838.09;5085982;27;97997;-72
2023/11/24 01:53:46;;;;;;;10.95;1.52;;;;;;;10.29;70.12;99830.03;5088852;27;96735;-72
2023/11/24 01:56:12;;;;;;;7.95;1.15;;;;;;;9.87;71.17;99829.41;5082613;27;99007;-72
2023/11/24 01:58:39;;;;;;;7.28;0.80;;;;;;;9.33;72.61;99840.69;5088777;27;98892;-73
2023/11/24 02:01:08;;;;;;;8.82;1.17;;;;;;;9.36;71.59;99819.47;5086256;27;98630;-73
2023/11/24 02:03:34;;;;;;;6.57;0.75;;;;;;;9.43;71.29;99827.06;5086769;27;97063;-73
2023/11/24 02:06:01;;;;;;;3.38;0.70;;;;;;;9.66;71.39;99814.56;5091631;27;99286;-74
2023/11/24 02:08:29;;;;;;;3.33;0.77;;;;;;;9.96;69.81;99816.66;5084398;27;98742;-73
2023/11/24 02:10:56;;;;;;;7.28;0.60;;;;;;;9.86;70.37;99799.53;5092041;27;96838;-74
2023/11/24 02:13:25;;;;;;;4.68;0.77;;;;;;;9.66;70.41;99799.59;5086592;27;96968;-74
2023/11/24 02:15:51;;;;;;;3.08;0.63;;;;;;;9.44;71.69;99801.53;5088054;27;98817;-74
2023/11/24 02:18:19;;;;;;;5.40;0.73;;;;;;;9.34;71.68;99790.53;5089342;27;102243;-74
2023/11/24 02:20:46;;;;;;;4.25;0.47;;;;;;;9.64;71.60;99783.00;5086364;27;96633;-74
2023/11/24 02:23:16;;;;;;;7.53;0.63;;;;;;;9.37;71.72;99794.84;5093413;27;96974;-73
2023/11/24 02:25:42;;;;;;;3.50;0.52;;;;;;;9.07;72.73;99792.63;5093713;27;100450;-74
2023/11/24 02:28:09;;;;;;;3.83;0.40;;;;;;;9.12;73.84;99774.81;5081452;27;98938;-73
2023/11/24 02:30:36;;;;;;;3.30;0.50;;;;;;;9.29;72.82;99782.00;5089784;27;96644;-73
2023/11/24 02:33:03;;;;;;;5.88;0.50;;;;;;;9.33;72.03;99772.16;5083259;27;97206;-73
2023/11/24 02:35:31;;;;;;;4.38;0.35;;;;;;;9.25;71.92;99761.13;5090522;27;102643;-73
2023/11/24 02:37:58;;;;;;;5.32;1.52;;;;;;;9.13;72.49;99765.16;5079112;27;98918;-73
2023/11/24 02:40:25;;;;;;;6.60;0.95;;;;;;;9.13;72.58;99763.38;5086265;27;96915;-73
2023/11/24 02:42:52;;;;;;;7.50;1.17;;;;;;;9.05;72.61;99762.88;5089718;27;96783;-73
2023/11/24 02:45:18;;;;;;;6.60;0.80;;;;;;;9.31;71.46;99761.69;5087100;27;98855;-73
2023/11/24 02:47:45;;;;;;;10.02;1.20;;;;;;;9.48;70.95;99753.84;5084519;27;99695;-73
2023/11/24 02:50:12;;;;;;;10.30;1.95;;;;;;;9.42;71.04;99750.66;5090130;27;98242;-73
2023/11/24 02:52:39;;;;;;;4.82;0.93;;;;;;;9.57;70.92;99747.31;5085152;27;97055;-73
2023/11/24 02:55:06;;;;;;;8.25;1.40;;;;;;;9.72;69.98;99748.34;5094957;27;97601;-72
2023/11/24 02:57:34;;;;;;;12.05;1.50;;;;;;;9.62;70.23;99744.44;5084262;27;99706;-73
2023/11/24 03:00:01;;;;;;;9.07;1.13;;;;;;;9.14;71.91;99741.38;5088029;27;97950;-73
2023/11/24 03:02:27;;;;;;;11.32;1.85;;;;;;;9.24;72.61;99736.53;5083100;27;96741;-73
2023/11/24 03:04:53;;;;;;;;;;;;;;;9.12;73.40;99743.19;5088111;27;98192;-72
2023/11/24 03:07:20;;;;;;;9.73;1.70;;;;;;;9.22;73.06;99741.00;5084384;27;98744;-72
2023/11/24 03:09:46;;;;;;;11.38;1.73;;;;;;;9.23;73.33;99739.25;5084150;27;98214;-71
2023/11/24 03:12:12;;;;;;;14.23;2.22;;;;;;;9.15;74.17;99744.84;5093169;27;97254;-71
2023/11/24 03:14:42;;;;;;;17.40;1.88;;;;;;;9.24;73.86;99740.97;5092688;27;97586;-71
2023/11/24 03:17:08;;;;;;;10.95;1.50;;;;;;;9.48;72.77;99747.72;5094061;27;99672;-72
2023/11/24 03:19:35;;;;;;;19.83;2.60;;;;;;;9.18;73.29;99747.38;5087577;27;97011;-73
2023/11/24 03:22:01;;;;;;;15.18;2.13;;;;;;;9.03;74.00;99751.53;5088002;27;98129;-73
2023/11/24 03:24:28;;;;;;;21.25;2.72;;;;;;;8.79;74.99;99742.09;5089167;27;97956;-73
2023/11/24 03:26:54;;;;;;;16.67;2.15;;;;;;;8.80;74.67;99746.41;5090174;27;99120;-73
2023/11/24 03:29:21;;;;;;;17.90;2.60;;;;;;;9.04;73.90;99755.03;5086803;27;96754;-73
2023/11/24 03:31:48;;;;;;;19.58;3.00;;;;;;;9.13;72.90;99750.19;5086784;27;97940;-73
2023/11/24 03:34:15;;;;;;;13.32;2.20;;;;;;;8.89;73.70;99751.28;5080277;27;102110;-73
2023/11/24 03:36:41;;;;;;;20.73;2.28;;;;;;;8.95;74.26;99752.78;5087470;27;99071;-73
2023/11/24 03:39:07;;;;;;;30.48;3.20;;;;;;;9.25;73.12;99737.41;5088923;27;97220;-73
2023/11/24 03:41:38;;;;;;;21.02;2.60;;;;;;;9.35;72.70;99736.88;5091647;27;97040;-74
2023/11/24 03:44:05;;;;;;;25.80;3.63;;;;;;;9.55;72.14;99735.97;5084162;27;99935;-73
2023/11/24 03:46:31;;;;;;;20.25;3.10;;;;;;;9.80;71.24;99731.22;5084647;27;99345;-74
2023/11/24 03:48:59;;;;;;;26.73;3.05;;;;;;;9.53;71.19;99738.66;5080367;27;97955;-74
2023/11/24 03:51:26;;;;;;;31.38;5.00;;;;;;;9.44;71.41;99725.06;5091590;27;97723;-74
2023/11/24 03:53:52;;;;;;;20.35;2.67;;;;;;;9.26;71.64;99720.63;5092436;27;98848;-72
2023/11/24 03:56:19;;;;;;;22.02;2.67;;;;;;;9.23;71.91;99712.88;5084115;27;97627;-74
2023/11/24 03:58:45;;;;;;;25.95;2.90;;;;;;;9.14;72.64;99704.47;5088709;27;96972;-74
2023/11/24 04:01:13;;;;;;;13.88;2.30;;;;;;;8.92;73.63;99709.03;5091320;27;96783;-74
2023/11/24 04:03:39;;;;;;;17.13;3.17;;;;;;;9.28;72.55;99717.00;5081408;27;101812;-74
2023/11/24 04:06:08;;;;;;;29.35;2.17;;;;;;;9.09;73.99;99710.88;5091638;27;99879;-74
2023/11/24 04:08:35;;;;;;;28.45;3.28;;;;;;;9.27;73.49;99717.94;5084976;27;96652;-73
2023/11/24 04:11:02;;;;;;;16.73;2.33;;;;;;;9.37;73.17;99726.28;5083938;27;97313;-74
2023/11/24 04:13:28;;;;;;;18.85;2.30;;;;;;;9.29;73.51;99733.69;5089929;27;100502;-73
2023/11/24 04:15:55;;;;;;;10.48;1.90;;;;;;;9.39;73.49;99740.22;5091147;27;99300;-73
2023/11/24 04:18:21;;;;;;;14.77;2.72;;;;;;;9.48;73.40;99742.44;5086997;27;96940;-74
2023/11/24 04:20:48;;;;;;;14.40;1.98;;;;;;;9.40;74.42;99732.25;5086764;27;96743;-74
2023/11/24 04:23:17;;;;;;;17.05;1.98;;;;;;;9.48;74.10;99721.34;5085455;27;99801;-74
2023/11/24 04:25:43;;;;;;;10.10;1.88;;;;;;;9.56;74.54;99732.41;5089410;27;98836;-75
2023/11/24 04:28:10;;;;;;;6.63;1.00;;;;;;;9.05;74.41;99726.00;5086209;27;97343;-74
2023/11/24 04:30:37;;;;;;;8.20;2.15;;;;;;;9.52;73.38;99720.25;5082104;27;97922;-75
2023/11/24 04:33:03;;;;;;;10.32;2.38;;;;;;;9.91;71.83;99713.06;5093202;27;98928;-71
2023/11/24 04:35:30;;;;;;;12.25;2.30;;;;;;;9.83;72.02;99720.53;5088249;27;98915;-72
2023/11/24 04:37:56;;;;;;;11.45;2.75;;;;;;;9.65;72.69;99720.56;5081885;27;96791;-72
2023/11/24 04:40:24;;;;;;;9.93;1.85;;;;;;;10.08;71.91;99708.75;5083023;27;96809;-75
2023/11/24 04:42:51;;;;;;;14.30;2.08;;;;;;;9.80;72.75;99712.75;5084054;27;100184;-74
2023/11/24 04:45:18;;;;;;;6.57;1.30;;;;;;;9.43;74.01;99729.47;5086810;27;101143;-75
2023/11/24 04:47:44;;;;;;;11.30;1.75;;;;;;;9.66;73.72;99735.44;5085791;27;97180;-74
2023/11/24 04:50:11;;;;;;;13.60;2.15;;;;;;;9.57;74.24;99723.56;5092190;27;97434;-73
2023/11/24 04:52:38;;;;;;;10.88;1.40;;;;;;;9.63;72.41;99711.88;5089062;27;101921;-74
2023/11/24 04:55:05;;;;;;;8.63;1.60;;;;;;;9.65;73.01;99707.38;5084539;27;97765;-75
2023/11/24 04:57:33;;;;;;;10.98;1.50;;;;;;;9.54;73.05;99698.19;5089606;27;98882;-74
2023/11/24 05:00:00;;;;;;;6.03;1.02;;;;;;;9.22;73.45;99684.81;5088286;27;96841;-74
2023/11/24 05:02:27;;;;;;;8.82;1.20;;;;;;;9.32;73.04;99694.84;5085285;27;98214;-75
2023/11/24 05:04:55;;;;;;;9.90;1.25;;;;;;;9.24;73.24;99693.50;5081579;27;99580;-74
2023/11/24 05:07:23;;;;;;;6.82;1.48;;;;;;;9.28;72.81;99695.91;5090533;27;96995;-73
2023/11/24 05:09:49;;;;;;;9.57;1.38;;;;;;;8.90;72.93;99684.50;5090467;27;97284;-75
2023/11/24 05:12:16;;;;;;;7.38;1.05;;;;;;;9.10;73.25;99687.09;5091491;27;98853;-73
2023/11/24 05:14:44;;;;;;;8.82;1.23;;;;;;;9.10;72.86;99678.34;5085473;27;98828;-73
2023/11/24 05:17:10;;;;;;;8.35;1.13;;;;;;;9.23;71.86;99684.75;5081773;27;97599;-72
2023/11/24 05:19:37;;;;;;;8.52;1.17;;;;;;;9.42;71.33;99682.94;5083998;27;96831;-71
2023/11/24 05:22:03;;;;;;;15.38;1.30;;;;;;;9.48;70.51;99681.78;5088212;27;98802;-71
2023/11/24 05:24:29;;;;;;;11.13;1.52;;;;;;;9.21;70.15;99689.22;5082985;27;98973;-72
2023/11/24 05:26:56;;;;;;;9.90;1.23;;;;;;;9.33;70.25;99700.97;5083103;27;97831;-72
2023/11/24 05:29:23;;;;;;;10.38;1.98;;;;;;;9.26;70.38;99692.50;5087269;27;97224;-71
2023/11/24 05:31:51;;;;;;;8.43;1.40;;;;;;;9.24;69.56;99680.31;5077586;27;99297;-72
2023/11/24 05:34:17;;;;;;;6.80;1.23;;;;;;;9.30;69.92;99693.22;5084485;27;99200;-73
2023/11/24 05:36:44;;;;;;;8.43;1.35;;;;;;;9.23;70.66;99692.66;5088843;27;96821;-73
2023/11/24 05:39:11;;;;;;;14.55;1.55;;;;;;;9.36;69.54;99692.94;5083494;27;100221;-74
2023/11/24 05:41:37;;;;;;;8.88;1.38;;;;;;;9.15;70.50;99674.56;5081533;27;98915;-74
2023/11/24 05:44:04;;;;;;;10.75;1.35;;;;;;;8.91;71.06;99674.84;5081705;27;100812;-73
2023/11/24 05:46:31;;;;;;;14.98;1.65;;;;;;;9.12;70.67;99673.84;5088919;27;96809;-74
2023/11/24 05:48:58;;;;;;;12.15;1.25;;;;;;;8.93;69.94;99675.59;5087764;27;96848;-75
2023/11/24 05:51:25;;;;;;;12.27;1.60;;;;;;;9.07;69.98;99679.31;5082481;27;101542;-74
2023/11/24 05:53:52;;;;;;;8.20;2.83;;;;;;;9.04;69.66;99666.31;5082632;27;101363;-75
2023/11/24 05:56:18;;;;;;;10.90;1.27;;;;;;;8.90;70.29;99660.81;5087501;27;98728;-76
2023/11/24 05:58:45;;;;;;;9.05;1.63;;;;;;;8.83;69.99;99669.91;5088660;27;97000;-74
2023/11/24 06:01:12;;;;;;;6.93;1.20;;;;;;;8.94;69.48;99670.25;5088229;27;97619;-74
2023/11/24 06:03:38;;;;;;;13.60;1.67;;;;;;;8.97;69.16;99670.13;5084995;27;101576;-74
2023/11/24 06:06:07;;;;;;;6.60;1.42;;;;;;;9.22;68.96;99667.22;5074443;27;96819;-72
2023/11/24 06:08:33;;;;;;;8.18;1.40;;;;;;;9.33;67.31;99666.69;5080412;27;98171;-72
2023/11/24 06:10:59;;;;;;;11.60;1.35;;;;;;;9.20;67.89;99672.53;5086882;27;98828;-73
2023/11/24 06:13:26;;;;;;;8.55;1.13;;;;;;;9.30;67.41;99666.84;5077381;27;98793;-73
2023/11/24 06:15:54;;;;;;;8.65;1.02;;;;;;;9.34;66.91;99661.34;5083056;27;97074;-72
2023/11/24 06:18:20;;;;;;;8.35;1.30;;;;;;;9.50;66.51;99674.69;5085174;27;96829;-73
2023/11/24 06:20:47;;;;;;;15.25;1.52;;;;;;;9.02;67.50;99657.59;5085500;27;98823;-72
2023/11/24 06:23:15;;;;;;;19.67;5.50;;;;;;;9.15;67.02;99658.75;5082742;27;98814;-72
2023/11/24 06:25:41;;;;;;;12.38;2.50;;;;;;;8.75;67.75;99648.31;5082409;27;96708;-71
2023/11/24 06:28:07;;;;;;;12.95;1.95;;;;;;;8.86;67.61;99651.31;5087224;27;96927;-71
2023/11/24 06:30:34;;;;;;;6.43;1.05;;;;;;;9.03;67.61;99646.13;5073396;27;99304;-72
2023/11/24 06:33:00;;;;;;;10.32;1.35;;;;;;;9.16;66.49;99651.69;5084668;27;99142;-72
2023/11/24 06:35:26;;;;;;;8.48;1.27;;;;;;;9.35;65.81;99651.66;5087608;27;96861;-72
2023/11/24 06:37:53;;;;;;;7.28;1.33;;;;;;;9.15;65.81;99649.97;5078580;27;96789;-72
2023/11/24 06:40:21;;;;;;;11.68;1.80;;;;;;;9.31;65.47;99647.47;5086187;27;98883;-71
2023/11/24 06:42:47;;;;;;;10.00;1.15;;;;;;;9.31;64.95;99642.22;5081285;27;99234;-73
2023/11/24 06:45:14;;;;;;;13.43;1.98;;;;;;;9.15;65.61;99648.19;5090484;27;96823;-73
2023/11/24 06:47:40;;;;;;;7.40;1.55;;;;;;;9.21;65.08;99647.03;5082443;27;96866;-74
2023/11/24 06:50:09;;;;;;;20.15;1.77;;;;;;;9.42;63.98;99639.91;5087208;27;98907;-73
2023/11/24 06:52:35;;;;;;;12.52;2.10;;;;;;;9.17;65.83;99662.16;5090070;27;98902;-72
2023/11/24 06:55:02;;;;;;;14.65;2.28;;;;;;;9.29;64.03;99657.22;5086607;27;98876;-70
2023/11/24 06:57:29;;;;;;;16.60;1.80;;;;;;;9.29;64.75;99646.69;5090274;27;96766;-71
2023/11/24 06:59:56;;;;;;;7.43;1.30;;;;;;;9.43;64.21;99666.19;5088935;27;99198;-71
2023/11/24 07:02:22;;;;;;;14.93;2.10;;;;;;;9.70;63.54;99660.53;5083312;27;98950;-72
2023/11/24 07:04:49;;;;;;;13.38;1.25;;;;;;;9.67;62.84;99661.50;5085327;27;96694;-75
2023/11/24 07:07:16;;;;;;;16.55;2.88;;;;;;;9.75;63.30;99659.38;5089679;27;96897;-75
2023/11/24 07:09:42;;;;;;;12.88;2.05;;;;;;;9.71;63.55;99668.38;5080901;27;99920;-74
2023/11/24 07:12:12;;;;;;;12.32;1.27;;;;;;;9.44;63.61;99659.16;5091582;27;98834;-75
2023/11/24 07:14:40;;;;;;;14.20;2.92;;;;;;;9.44;64.06;99656.50;5088740;27;100452;-74
2023/11/24 07:17:06;;;;;;;17.85;2.00;;;;;;;9.47;63.64;99653.72;5087697;27;96759;-74
2023/11/24 07:19:32;;;;;;;13.48;1.50;;;;;;;9.23;63.97;99661.03;5085305;27;99061;-74
2023/11/24 07:21:59;;;;;;;17.92;1.83;;;;;;;9.33;64.47;99646.47;5087353;27;99362;-76
2023/11/24 07:24:25;;;;;;;10.82;1.70;;;;;;;9.33;63.78;99656.16;5084233;27;96695;-76
2023/11/24 07:26:53;;;;;;;16.90;2.40;;;;;;;9.35;64.09;99644.63;5089836;27;98772;-75
2023/11/24 07:29:21;;;;;;;13.90;1.90;;;;;;;9.24;63.80;99648.69;5084350;27;98822;-75
2023/11/24 07:31:49;;;;;;;13.57;1.77;;;;;;;9.11;65.14;99651.06;5089146;27;99133;-74
2023/11/24 07:34:15;;;;;;;13.40;2.00;;;;;;;9.32;63.63;99643.94;5092686;27;96947;-74
2023/11/24 07:36:44;;;;;;;14.23;2.00;;;;;;;9.08;64.21;99641.50;5091517;27;96793;-75
2023/11/24 07:39:11;;;;;;;13.32;1.95;;;;;;;9.27;63.66;99648.53;5090242;27;103180;-75
2023/11/24 07:41:38;;;;;;;9.75;1.60;;;;;;;9.42;62.34;99648.66;5088668;27;99341;-74
2023/11/24 07:44:04;;;;;;;14.13;1.77;;;;;;;9.20;63.59;99640.91;5085092;27;96999;-73
2023/11/24 07:46:30;;;;;;;15.77;1.95;;;;;;;8.99;63.61;99638.47;5088586;27;99083;-74
2023/11/24 07:48:58;;;;;;;15.32;2.40;;;;;;;8.81;63.63;99637.50;5082734;27;98939;-72
2023/11/24 07:51:24;;;;;;;16.45;2.60;;;;;;;8.86;63.60;99639.94;5080312;27;101240;-73
2023/11/24 07:53:51;;;;;;;13.80;1.80;;;;;;;9.07;63.38;99646.84;5087755;27;97100;-73
2023/11/24 07:56:17;;;;;;;11.00;1.60;;;;;;;8.91;64.03;99641.44;5083376;27;97991;-72
2023/11/24 07:58:43;;;;;;;18.05;2.13;;;;;;;9.16;63.34;99652.53;5076213;27;98910;-71
2023/11/24 08:01:13;;;;;;;14.45;2.42;;;;;;;9.25;62.95;99656.53;5090494;27;98762;-71
2023/11/24 08:03:40;;;;;;;19.67;1.88;;;;;;;9.07;63.78;99647.69;5084803;27;96696;-71
2023/11/24 08:06:11;;;;;;;13.05;1.83;;;;;;;8.95;64.13;99650.91;5090647;27;97371;-70
2023/11/24 08:08:37;;;;;;;20.25;2.53;;;;;;;9.14;63.66;99656.16;5084723;27;100236;-72
2023/11/24 08:11:04;;;;;;;15.48;1.77;;;;;;;9.09;63.23;99663.44;5088329;27;100682;-72
2023/11/24 08:13:31;;;;;;;14.77;2.08;;;;;;;9.03;63.75;99663.72;5083774;27;99710;-72
2023/11/24 08:15:57;;;;;;;18.67;2.17;;;;;;;9.64;62.45;99658.19;5082897;27;97072;-73
2023/11/24 08:18:24;;;;;;;13.38;2.42;;;;;;;9.63;61.61;99657.34;5082789;27;99049;-73
2023/11/24 08:20:51;;;;;;;20.13;2.00;;;;;;;9.55;61.38;99643.66;5082489;27;98778;-72
2023/11/24 08:23:18;;;;;;;12.23;1.90;;;;;;;9.88;60.38;99649.06;5087491;27;96845;-72
2023/11/24 08:25:45;;;;;;;10.85;2.53;;;;;;;9.32;62.23;99652.66;5084905;27;96825;-73
2023/11/24 08:28:11;;;;;;;13.48;1.77;;;;;;;9.29;62.20;99641.41;5085206;27;103032;-73
2023/11/24 08:30:38;;;;;;;10.45;2.03;;;;;;;9.41;62.54;99654.88;5079916;27;98849;-74
2023/11/24 08:33:05;;;;;;;16.02;2.38;;;;;;;9.41;62.12;99649.59;5082556;27;96819;-74
2023/11/24 08:35:31;;;;;;;18.10;2.65;;;;;;;9.62;61.48;99646.84;5079508;27;96835;-73
2023/11/24 08:37:57;;;;;;;15.45;2.50;;;;;;;9.67;61.34;99647.47;5086923;27;99506;-74
2023/11/24 08:40:26;;;;;;;17.95;1.90;;;;;;;9.60;60.73;99642.50;5082849;27;99450;-74
2023/11/24 08:42:53;;;;;;;15.02;1.88;;;;;;;9.50;60.48;99635.97;5089722;27;97877;-74
2023/11/24 08:45:19;;;;;;;14.15;1.48;;;;;;;9.26;60.72;99631.00;5082777;27;98719;-74
2023/11/24 08:47:46;;;;;;;;;;;;;;;9.22;60.48;99637.34;5081036;27;100855;-74
2023/11/24 08:50:13;;;;;;;9.88;1.77;;;;;;;9.03;62.28;99632.97;5079123;27;99077;-73
2023/11/24 08:52:39;;;;;;;23.08;2.15;;;;;;;9.20;61.80;99640.91;5088122;27;97390;-74
2023/11/24 08:55:08;;;;;;;12.27;1.75;;;;;;;9.33;60.99;99640.34;5084391;27;97318;-74
2023/11/24 08:57:35;;;;;;;11.38;1.35;;;;;;;9.37;60.72;99629.59;5079570;27;99033;-74
2023/11/24 09:00:02;;;;;;;13.57;1.83;;;;;;;9.58;60.85;99632.97;5083785;27;100354;-74
2023/11/24 09:02:30;;;;;;;11.85;1.92;;;;;;;9.38;59.91;99639.22;5076763;27;97742;-73
2023/11/24 09:04:57;;;;;;;14.05;2.25;;;;;;;9.83;59.39;99630.81;5083404;27;96877;-74
2023/11/24 09:07:23;;;;;;;12.18;2.13;;;;;;;10.02;58.89;99646.59;5078341;27;99065;-73
2023/11/24 09:09:50;;;;;;;14.32;2.03;;;;;;;9.82;58.90;99628.25;5076406;27;98790;-72
2023/11/24 09:12:17;;;;;;;16.75;1.73;;;;;;;9.83;59.13;99629.97;5080534;27;96879;-73
2023/11/24 09:14:45;;;;;;;17.00;2.42;;;;;;;9.91;59.30;99614.63;5082516;27;96852;-73
2023/11/24 09:17:12;;;;;;;13.10;1.80;;;;;;;9.86;58.84;99617.47;5081793;27;98940;-71
2023/11/24 09:19:39;;;;;;;8.23;1.38;;;;;;;10.44;57.95;99622.41;5087290;27;98900;-72
2023/11/24 09:22:06;;;;;;;13.15;1.40;;;;;;;9.94;57.37;99615.28;5089962;27;97754;-72
2023/11/24 09:24:32;;;;;;;8.68;1.60;;;;;;;9.99;57.15;99617.69;5087524;27;97262;-72
2023/11/24 09:26:59;;;;;;;10.75;1.95;;;;;;;10.02;57.42;99614.06;5079644;27;101748;-72
2023/11/24 09:29:27;;;;;;;14.60;2.05;;;;;;;9.82;58.06;99608.00;5077782;27;98867;-72
2023/11/24 09:31:57;;;;;;;13.38;1.58;;;;;;;9.90;58.17;99607.63;5081642;27;97721;-73
2023/11/24 09:34:24;;;;;;;8.55;1.80;;;;;;;10.19;57.54;99599.09;5082513;27;96962;-73
2023/11/24 09:36:50;;;;;;;17.55;2.55;;;;;;;10.19;58.30;99587.66;5083552;27;98796;-73
2023/11/24 09:39:17;;;;;;;12.70;1.52;;;;;;;9.88;56.85;99580.44;5088371;27;99608;-72
2023/11/24 09:41:47;;;;;;;25.33;2.67;;;;;;;9.58;58.60;99578.41;5083183;27;97122;-72
2023/11/24 09:44:15;;;;;;;12.45;1.58;;;;;;;9.33;58.37;99582.34;5088875;27;97177;-72
2023/11/24 09:46:44;;;;;;;10.85;2.78;;;;;;;9.76;58.06;99581.94;5083233;27;100901;-72
2023/11/24 09:49:16;;;;;;;10.40;1.55;;;;;;;9.45;58.42;99573.84;5084131;27;99184;-72
2023/11/24 09:51:43;;;;;;;11.80;1.50;;;;;;;9.40;59.46;99574.06;5087229;27;98692;-73
2023/11/24 09:54:12;;;;;;;12.57;1.60;;;;;;;9.70;58.33;99584.88;5084689;27;96785;-73
2023/11/24 09:56:40;;;;;;;12.80;2.10;;;;;;;10.20;56.62;99557.69;5078365;27;98853;-74
2023/11/24 09:59:08;;;;;;;17.55;2.08;;;;;;;10.28;55.95;99579.28;5084218;27;99076;-72
2023/11/24 10:01:37;;;;;;;13.32;1.52;;;;;;;9.46;57.98;99568.47;5089101;27;96795;-71
2023/11/24 10:04:05;;;;;;;15.63;2.17;;;;;;;9.52;57.85;99562.03;5079553;27;98022;-71
2023/11/24 10:06:37;;;;;;;8.93;1.50;;;;;;;9.48;58.14;99558.72;5082101;27;98866;-74
2023/11/24 10:09:06;;;;;;;14.48;2.00;;;;;;;9.90;57.04;99557.50;5090504;27;102137;-75
2023/11/24 10:11:33;;;;;;;8.75;1.10;;;;;;;10.21;56.02;99554.13;5084759;27;100588;-75
2023/11/24 10:14:03;;;;;;;16.50;1.70;;;;;;;10.18;56.23;99544.56;5090515;27;96878;-76
2023/11/24 10:16:30;;;;;;;10.45;1.55;;;;;;;10.36;55.45;99545.41;5076589;27;98954;-75
2023/11/24 10:19:00;;;;;;;10.88;1.75;;;;;;;10.46;55.09;99543.97;5085926;27;98798;-76
2023/11/24 10:21:27;;;;;;;6.10;1.48;;;;;;;10.29;55.25;99534.31;5082306;27;98947;-76
2023/11/24 10:23:56;;;;;;;8.93;1.27;;;;;;;10.52;55.12;99534.84;5094099;27;98190;-75
2023/11/24 10:26:25;;;;;;;11.35;1.60;;;;;;;10.24;55.43;99530.22;5078131;27;99226;-77
2023/11/24 10:28:52;;;;;;;10.00;1.50;;;;;;;10.11;55.18;99523.84;5087460;27;98054;-75
2023/11/24 10:31:19;;;;;;;10.75;1.60;;;;;;;10.67;54.37;99519.03;5085963;27;97348;-75
2023/11/24 10:33:46;;;;;;;10.43;1.75;;;;;;;10.86;53.13;99518.84;5087293;27;97615;-75
2023/11/24 10:36:12;;;;;;;6.93;1.42;;;;;;;10.29;53.98;99491.22;5083084;27;99053;-75
2023/11/24 10:38:41;;;;;;;9.90;1.45;;;;;;;9.91;54.54;99487.97;5085990;27;98802;-75
2023/11/24 10:41:12;;;;;;;16.60;1.35;;;;;;;10.03;54.25;99482.03;5083062;27;96713;-75
2023/11/24 10:43:39;;;;;;;12.70;2.08;;;;;;;10.15;54.62;99483.16;5084022;27;96956;-76
2023/11/24 10:46:11;;;;;;;12.10;1.52;;;;;;;10.38;54.21;99477.50;5080948;27;99517;-75
2023/11/24 10:48:47;;;;;;;14.60;1.70;;;;;;;10.58;53.67;99471.13;5085229;27;98757;-75
2023/11/24 10:51:19;;;;;;;;;;;;;;;10.54;53.27;99481.00;5078338;27;98312;-73
2023/11/24 10:53:52;;;;;;;6.78;1.30;;;;;;;10.33;53.49;99466.34;5084742;27;97281;-75
2023/11/24 10:56:21;;;;;;;9.10;2.10;;;;;;;10.22;53.54;99479.28;5086139;27;100572;-76
2023/11/24 10:58:51;;;;;;;9.43;1.05;;;;;;;10.42;53.71;99479.06;5080009;27;101520;-75
2023/11/24 11:01:18;;;;;;;14.05;1.73;;;;;;;10.41;53.64;99469.41;5081687;27;96912;-75
2023/11/24 11:03:45;;;;;;;11.38;2.03;;;;;;;10.27;53.72;99462.25;5083494;27;98339;-76
2023/11/24 11:06:20;;;;;;;20.67;2.10;;;;;;;10.28;53.79;99463.09;5087188;27;99589;-75
2023/11/24 11:08:56;;;;;;;8.13;1.20;;;;;;;10.31;53.19;99457.63;5088328;27;99358;-76
2023/11/24 11:11:39;;;;;;;15.20;2.00;;;;;;;10.36;53.42;99453.84;5077785;27;98086;-76
2023/11/24 11:14:07;;;;;;;9.57;1.55;;;;;;;10.12;54.37;99464.81;5086358;27;99721;-75
2023/11/24 11:16:33;;;;;;;10.90;2.53;;;;;;;10.35;53.37;99460.06;5084532;27;100499;-76
2023/11/24 11:19:32;;;;;;;9.70;1.83;;;;;;;10.55;52.34;99460.75;5081482;27;98844;-76
2023/11/24 11:22:00;;;;;;;12.20;1.35;;;;;;;10.70;51.64;99450.16;5081051;27;97169;-75
2023/11/24 11:24:28;;;;;;;11.15;1.73;;;;;;;10.31;52.95;99442.66;5086154;27;96990;-74
2023/11/24 11:26:57;;;;;;;14.98;1.90;;;;;;;10.06;53.84;99447.53;5088321;27;98860;-76
2023/11/24 11:29:26;;;;;;;15.27;1.40;;;;;;;10.13;53.49;99441.00;5082588;27;100967;-75
2023/11/24 11:31:53;;;;;;;17.00;1.75;;;;;;;9.88;53.37;99432.69;5086507;27;97578;-75